createdAt,value
2022-10-11T00:02:18.629Z,3.88
2022-10-11T00:07:20.772Z,3.78
2022-10-11T00:12:22.933Z,3.65
2022-10-11T00:17:24.996Z,3.65
2022-10-11T00:22:27.039Z,4.05
2022-10-11T00:27:28.992Z,3.58
2022-10-11T00:32:33.770Z,2.92
2022-10-11T00:37:38.029Z,3.53
2022-10-11T00:42:40.084Z,3.38
2022-10-11T00:47:42.068Z,4.07
2022-10-11T00:52:49.975Z,3.65
2022-10-11T00:57:53.056Z,3.40
2022-10-11T01:02:55.142Z,3.47
2022-10-11T01:07:59.119Z,3.40
2022-10-11T01:13:35.158Z,3.60
2022-10-11T01:19:00.159Z,3.45
2022-10-11T01:24:28.001Z,3.50
2022-10-11T01:29:44.951Z,3.85
2022-10-11T01:35:03.245Z,3.35
2022-10-11T01:40:37.273Z,3.70
2022-10-11T01:45:41.381Z,3.22
2022-10-11T01:50:47.557Z,3.30
2022-10-11T01:56:09.543Z,3.20
2022-10-11T02:01:26.985Z,3.28
2022-10-11T02:06:39.850Z,3.60
2022-10-11T02:11:42.746Z,3.75
2022-10-11T02:16:49.500Z,4.25
2022-10-11T02:21:56.652Z,4.20
2022-10-11T02:27:01.228Z,3.65
2022-10-11T02:32:03.569Z,3.97
2022-10-11T02:37:17.426Z,3.65
2022-10-11T02:42:33.938Z,3.38
2022-10-11T02:47:36.564Z,3.58
2022-10-11T02:52:38.600Z,3.65
2022-10-11T02:57:40.707Z,3.65
2022-10-11T03:02:42.683Z,3.72
2022-10-11T03:07:44.637Z,3.42
2022-10-11T03:12:46.776Z,3.60
2022-10-11T03:17:49.020Z,3.78
2022-10-11T03:22:51.193Z,3.47
2022-10-11T03:27:53.315Z,4.47
2022-10-11T03:32:55.319Z,3.92
2022-10-11T03:37:57.393Z,4.18
2022-10-11T03:42:59.440Z,4.07
2022-10-11T03:48:01.833Z,4.60
2022-10-11T03:53:05.052Z,5.10
2022-10-11T03:58:07.568Z,4.93
2022-10-11T04:03:09.605Z,6.10
2022-10-11T04:08:12.426Z,4.15
2022-10-11T04:13:14.955Z,4.25
2022-10-11T04:18:17.111Z,3.80
2022-10-11T04:23:19.174Z,3.88
2022-10-11T04:28:21.167Z,4.00
2022-10-11T04:33:23.343Z,4.20
2022-10-11T04:38:25.434Z,4.10
2022-10-11T04:43:27.442Z,4.00
2022-10-11T04:48:29.576Z,4.20
2022-10-11T04:53:31.596Z,4.18
2022-10-11T04:58:35.193Z,4.15
2022-10-11T05:03:37.768Z,4.32
2022-10-11T05:08:39.854Z,3.78
2022-10-11T05:13:41.896Z,3.85
2022-10-11T05:18:44.170Z,4.32
2022-10-11T05:23:47.896Z,4.22
2022-10-11T05:28:50.213Z,4.38
2022-10-11T05:33:52.471Z,4.22
2022-10-11T05:38:54.555Z,4.45
2022-10-11T05:43:56.586Z,4.28
2022-10-11T05:48:58.572Z,4.28
2022-10-11T05:54:00.567Z,4.50
2022-10-11T05:59:04.392Z,4.22
2022-10-11T06:04:06.428Z,4.07
2022-10-11T06:09:08.463Z,4.10
2022-10-11T06:14:11.416Z,4.78
2022-10-11T06:19:13.740Z,4.32
2022-10-11T06:24:17.277Z,4.45
2022-10-11T06:29:19.344Z,3.97
2022-10-11T06:34:21.471Z,4.47
2022-10-11T06:39:23.496Z,4.30
2022-10-11T06:44:26.111Z,4.55
2022-10-11T06:49:28.579Z,4.20
2022-10-11T06:54:30.572Z,4.55
2022-10-11T06:59:32.548Z,4.35
2022-10-11T07:04:34.541Z,4.53
2022-10-11T07:09:36.645Z,4.70
2022-10-11T07:14:38.795Z,4.15
2022-10-11T07:19:40.785Z,4.50
2022-10-11T07:24:42.973Z,4.13
2022-10-11T07:29:45.065Z,4.15
2022-10-11T07:34:47.236Z,4.30
2022-10-11T07:39:49.699Z,4.88
2022-10-11T07:44:51.683Z,4.05
2022-10-11T07:49:53.771Z,4.53
2022-10-11T07:54:55.852Z,4.22
2022-10-11T07:59:57.909Z,4.10
2022-10-11T08:05:00.113Z,4.25
2022-10-11T08:10:02.259Z,4.90
2022-10-11T08:15:04.802Z,4.22
2022-10-11T08:20:07.167Z,4.60
2022-10-11T08:25:09.379Z,4.85
2022-10-11T08:30:12.182Z,4.35
2022-10-11T08:35:14.364Z,6.25
2022-10-11T08:40:20.952Z,5.88
2022-10-11T08:45:40.268Z,4.85
2022-10-11T08:50:46.362Z,5.22
2022-10-11T08:55:54.185Z,5.63
2022-10-11T09:00:57.827Z,8.05
2022-10-11T09:06:40.591Z,6.40
2022-10-11T09:11:59.578Z,7.70
2022-10-11T09:17:08.306Z,5.45
2022-10-11T09:22:24.800Z,5.00
2022-10-11T09:27:50.201Z,4.10
2022-10-11T09:33:11.822Z,5.78
2022-10-11T09:38:39.728Z,3.03
2022-10-11T09:43:45.864Z,3.83
2022-10-11T09:48:48.335Z,3.22
2022-10-11T09:54:00.893Z,2.38
2022-10-11T09:59:25.195Z,2.60
2022-10-11T10:04:27.195Z,1.65
2022-10-11T10:09:30.909Z,1.33
2022-10-11T10:14:32.895Z,1.48
2022-10-11T10:19:51.329Z,1.70
2022-10-11T10:24:54.685Z,1.00
2022-10-11T10:30:08.578Z,1.10
2022-10-11T10:35:16.724Z,1.98
2022-10-11T10:40:25.304Z,1.55
2022-10-11T10:45:36.550Z,1.67
2022-10-11T10:55:59.811Z,1.48
2022-10-11T11:01:13.238Z,1.63
2022-10-11T11:06:36.904Z,1.33
2022-10-11T11:12:10.591Z,1.00
2022-10-11T11:17:30.930Z,1.10
2022-10-11T11:22:38.859Z,1.27
2022-10-11T11:27:46.677Z,1.70
2022-10-11T11:33:07.340Z,1.20
2022-10-11T11:38:25.921Z,1.40
2022-10-11T11:43:33.803Z,1.30
2022-10-11T11:48:36.452Z,1.45
2022-10-11T11:53:56.756Z,1.30
2022-10-11T11:59:10.065Z,1.10
2022-10-11T12:04:34.727Z,0.90
2022-10-11T12:09:39.012Z,1.10
2022-10-11T12:14:42.559Z,1.27
2022-10-11T12:20:12.200Z,1.30
2022-10-11T12:25:18.372Z,1.30
2022-10-11T12:30:42.498Z,1.33
2022-10-11T12:35:54.132Z,1.00
2022-10-11T12:41:06.626Z,1.45
2022-10-11T12:47:01.433Z,0.90
2022-10-11T12:52:04.897Z,1.30
2022-10-11T12:57:12.123Z,1.10
2022-10-11T13:02:30.682Z,1.67
2022-10-11T13:07:35.191Z,1.52
2022-10-11T13:12:42.737Z,1.05
2022-10-11T13:17:44.864Z,1.27
2022-10-11T13:22:50.072Z,1.20
2022-10-11T13:27:54.848Z,1.20
2022-10-11T13:32:58.588Z,1.40
2022-10-11T13:38:01.552Z,1.27
2022-10-11T13:43:05.596Z,1.67
2022-10-11T13:48:14.755Z,1.42
2022-10-11T13:53:16.711Z,1.42
2022-10-11T13:58:27.588Z,2.10
2022-10-11T14:03:55.017Z,1.90
2022-10-11T14:08:58.483Z,2.60
2022-10-11T14:14:00.850Z,1.55
2022-10-11T14:19:10.198Z,1.23
2022-10-11T14:24:13.451Z,1.27
2022-10-11T14:29:27.288Z,1.00
2022-10-11T14:34:29.969Z,1.50
2022-10-11T14:39:33.167Z,1.02
2022-10-11T14:44:35.379Z,1.58
2022-10-11T14:49:37.812Z,1.52
2022-10-11T14:54:40.844Z,1.20
2022-10-11T14:59:43.535Z,1.33
2022-10-11T15:04:45.551Z,1.10
2022-10-11T15:09:47.652Z,1.48
2022-10-11T15:14:49.655Z,1.20
2022-10-11T15:19:51.655Z,1.00
2022-10-11T15:24:53.970Z,1.17
2022-10-11T15:29:55.970Z,1.60
2022-10-11T15:34:57.930Z,1.30
2022-10-11T15:39:59.969Z,1.45
2022-10-11T15:45:01.987Z,1.45
2022-10-11T15:50:12.421Z,1.17
2022-10-11T15:55:14.472Z,1.42
2022-10-11T16:00:21.370Z,1.20
2022-10-11T16:05:26.501Z,1.48
2022-10-11T16:10:28.502Z,1.75
2022-10-11T16:15:30.565Z,2.38
2022-10-11T16:20:32.687Z,1.95
2022-10-11T16:25:35.397Z,2.03
2022-10-11T16:30:43.129Z,2.20
2022-10-11T16:35:45.289Z,2.28
2022-10-11T16:40:47.274Z,5.93
2022-10-11T16:45:57.049Z,6.65
2022-10-11T16:51:05.862Z,8.27
2022-10-11T16:56:09.678Z,14.88
2022-10-11T17:01:11.825Z,18.25
2022-10-11T17:06:13.916Z,20.88
2022-10-11T17:11:17.675Z,23.63
2022-10-11T17:16:21.040Z,24.70
2022-10-11T17:21:23.633Z,21.20
2022-10-11T17:26:26.863Z,16.75
2022-10-11T17:31:30.128Z,13.90
2022-10-11T17:36:36.075Z,10.40
2022-10-11T17:41:38.566Z,7.30
2022-10-11T17:46:40.850Z,9.75
2022-10-11T17:51:43.103Z,8.13
2022-10-11T17:56:45.229Z,8.90
2022-10-11T18:01:48.458Z,8.27
2022-10-11T18:06:50.483Z,7.45
2022-10-11T18:11:52.885Z,7.03
2022-10-11T18:16:54.868Z,6.68
2022-10-11T18:21:56.929Z,8.00
2022-10-11T18:26:59.029Z,8.73
2022-10-11T18:32:01.195Z,8.57
2022-10-11T18:37:03.634Z,9.13
2022-10-11T18:42:05.737Z,9.60
2022-10-11T18:47:07.823Z,8.50
2022-10-11T18:52:09.912Z,16.63
2022-10-11T18:57:11.996Z,13.35
2022-10-11T19:02:14.008Z,8.85
2022-10-11T19:07:15.955Z,8.75
2022-10-11T19:12:18.053Z,7.22
2022-10-11T19:17:22.773Z,7.03
2022-10-11T19:22:24.840Z,8.38
2022-10-11T19:27:26.876Z,10.38
2022-10-11T19:32:29.053Z,10.73
2022-10-11T19:37:31.419Z,10.13
2022-10-11T19:42:34.088Z,9.23
2022-10-11T19:47:36.196Z,7.45
2022-10-11T19:52:42.707Z,9.57
2022-10-11T19:57:46.721Z,9.65
2022-10-11T20:02:48.947Z,8.23
2022-10-11T20:07:51.399Z,7.95
2022-10-11T20:12:53.432Z,9.38
2022-10-11T20:17:55.392Z,8.65
2022-10-11T20:22:57.465Z,11.18
2022-10-11T20:27:59.436Z,11.68
2022-10-11T20:33:01.470Z,9.73
2022-10-11T20:38:03.636Z,8.05
2022-10-11T20:43:05.707Z,7.40
2022-10-11T20:48:08.231Z,10.80
2022-10-11T20:53:14.207Z,8.63
2022-10-11T20:58:18.485Z,8.90
2022-10-11T21:03:20.518Z,8.55
2022-10-11T21:08:23.113Z,8.27
2022-10-11T21:13:25.367Z,7.05
2022-10-11T21:18:27.388Z,6.78
2022-10-11T21:23:29.342Z,6.20
2022-10-11T21:28:31.481Z,6.13
2022-10-11T21:33:34.606Z,7.05
2022-10-11T21:38:37.594Z,6.70
2022-10-11T21:43:40.268Z,6.55
2022-10-11T21:48:42.363Z,6.88
2022-10-11T21:53:44.455Z,7.60
2022-10-11T21:58:48.029Z,7.90
2022-10-11T22:03:54.079Z,6.25
2022-10-11T22:08:56.070Z,5.97
2022-10-11T22:13:58.706Z,5.60
2022-10-11T22:19:00.704Z,5.30
2022-10-11T22:24:02.786Z,5.32
2022-10-11T22:29:04.768Z,5.78
2022-10-11T22:34:06.766Z,5.88
2022-10-11T22:39:09.984Z,5.20
2022-10-11T22:44:11.979Z,4.82
2022-10-11T22:49:13.961Z,4.57
2022-10-11T22:54:15.932Z,5.00
2022-10-11T22:59:17.934Z,5.30
2022-10-11T23:04:20.822Z,5.47
2022-10-11T23:09:26.415Z,5.88
2022-10-11T23:14:28.375Z,6.40
2022-10-11T23:19:30.391Z,5.88
2022-10-11T23:24:32.340Z,5.95
2022-10-11T23:29:34.348Z,6.32
2022-10-11T23:34:36.791Z,5.50
2022-10-11T23:39:38.792Z,5.40
2022-10-11T23:44:40.767Z,4.75
2022-10-11T23:49:42.799Z,4.97
2022-10-11T23:54:44.781Z,5.20
2022-10-11T23:59:46.932Z,4.72
